createdAt,value
2023-03-17T00:00:59.621Z,27.3
2023-03-17T00:06:37.813Z,27.3
2023-03-17T00:12:30.052Z,27.2
2023-03-17T00:18:07.363Z,27.2
2023-03-17T00:23:59.783Z,27.1
2023-03-17T00:29:52.586Z,27.1
2023-03-17T00:35:13.830Z,27.1
2023-03-17T00:40:51.443Z,27.1
2023-03-17T00:46:28.121Z,27
2023-03-17T00:52:20.803Z,27
2023-03-17T00:58:13.832Z,26.9
2023-03-17T01:03:52.198Z,26.9
2023-03-17T01:09:53.260Z,26.9
2023-03-17T01:15:30.394Z,26.9
2023-03-17T01:21:07.558Z,26.9
2023-03-17T01:26:59.293Z,26.8
2023-03-17T01:32:52.764Z,26.8
2023-03-17T01:38:30.568Z,26.8
2023-03-17T01:43:52.242Z,26.7
2023-03-17T01:49:46.428Z,26.7
2023-03-17T01:55:38.685Z,26.6
2023-03-17T02:00:59.285Z,26.6
2023-03-17T02:06:21.815Z,26.8
2023-03-17T02:12:27.754Z,27.3
2023-03-17T02:18:20.177Z,27.7
2023-03-17T02:23:57.452Z,28.1
2023-03-17T02:29:19.261Z,28.5
2023-03-17T02:35:12.519Z,28.8
2023-03-17T02:40:50.852Z,29.3
2023-03-17T02:46:27.577Z,29.7
2023-03-17T02:51:48.170Z,30.1
2023-03-17T02:57:41.138Z,30.6
2023-03-17T03:03:19.113Z,31
2023-03-17T03:09:11.486Z,31.5
2023-03-17T03:15:04.913Z,32.1
2023-03-17T03:20:58.335Z,32.6
2023-03-17T03:26:49.601Z,33.1
2023-03-17T03:32:43.180Z,33.7
2023-03-17T03:38:20.516Z,34.1
2023-03-17T03:43:55.135Z,34.3
2023-03-17T03:49:32.871Z,34.4
2023-03-17T03:55:24.427Z,34.6
2023-03-17T04:01:02.604Z,34.7
2023-03-17T04:06:41.402Z,34.8
2023-03-17T04:12:33.121Z,34.8
2023-03-17T04:18:25.746Z,34.9
2023-03-17T04:24:18.767Z,34.9
2023-03-17T04:30:13.659Z,35
2023-03-17T04:35:52.183Z,35
2023-03-17T04:41:48.001Z,35.1
2023-03-17T04:47:25.964Z,35.1
2023-03-17T04:53:22.528Z,35.1
2023-03-17T04:59:13.859Z,35.1
2023-03-17T05:05:34.340Z,35
2023-03-17T05:11:13.255Z,35
2023-03-17T05:17:06.012Z,35
2023-03-17T05:22:58.383Z,34.9
2023-03-17T05:28:50.455Z,34.9
2023-03-17T05:34:44.695Z,34.9
2023-03-17T05:40:38.786Z,34.9
2023-03-17T05:46:31.821Z,34.8
2023-03-17T05:52:26.653Z,34.6
2023-03-17T05:58:04.058Z,33.8
2023-03-17T06:03:56.820Z,33.3
2023-03-17T06:10:04.757Z,33
2023-03-17T06:15:41.538Z,32.6
2023-03-17T06:21:33.881Z,32.4
2023-03-17T06:27:36.311Z,32
2023-03-17T06:33:42.524Z,31.7
2023-03-17T06:39:35.944Z,31.5
2023-03-17T06:45:30.558Z,31.4
2023-03-17T06:51:22.879Z,31.2
2023-03-17T06:57:33.285Z,31.1
2023-03-17T07:03:27.280Z,31
2023-03-17T07:09:19.582Z,30.9
2023-03-17T07:15:11.864Z,30.8
2023-03-17T07:21:06.106Z,30.7
2023-03-17T07:26:58.292Z,30.6
2023-03-17T07:32:20.182Z,30.5
2023-03-17T07:37:58.676Z,30.4
2023-03-17T07:43:50.879Z,30.4
2023-03-17T07:49:57.713Z,30.3
2023-03-17T07:55:54.076Z,30.3
2023-03-17T08:01:46.553Z,30.2
2023-03-17T08:07:55.534Z,30.1
2023-03-17T08:13:48.413Z,30.1
2023-03-17T08:19:41.985Z,30
2023-03-17T08:25:36.580Z,29.9
2023-03-17T08:31:32.744Z,29.6
2023-03-17T08:37:28.215Z,29.4
2023-03-17T08:43:05.970Z,29.3
2023-03-17T08:48:43.694Z,29.2
2023-03-17T08:54:21.127Z,29.1
2023-03-17T09:00:14.128Z,29
2023-03-17T09:06:11.346Z,28.9
2023-03-17T09:12:23.120Z,28.9
2023-03-17T09:18:12.450Z,28.8
2023-03-17T09:24:06.300Z,28.8
2023-03-17T09:29:59.949Z,28.6
2023-03-17T09:35:57.141Z,28.5
2023-03-17T09:41:20.407Z,28.4
2023-03-17T09:47:13.532Z,28.3
2023-03-17T09:53:08.016Z,28.1
2023-03-17T09:59:00.526Z,28
2023-03-17T10:04:53.286Z,27.9
2023-03-17T10:10:59.211Z,27.8
2023-03-17T10:16:53.233Z,27.6
2023-03-17T10:22:46.550Z,27.5
2023-03-17T10:28:11.284Z,27.4
2023-03-17T10:34:05.439Z,27.4
2023-03-17T10:40:09.084Z,27.3
2023-03-17T10:46:02.114Z,27.2
2023-03-17T10:51:55.671Z,27.1
2023-03-17T10:57:48.884Z,27
2023-03-17T11:03:42.175Z,26.9
2023-03-17T11:09:36.339Z,26.9
2023-03-17T11:15:28.472Z,26.9
2023-03-17T11:21:20.920Z,26.9
2023-03-17T11:26:58.985Z,32.9
2023-03-17T11:32:36.853Z,43.6
2023-03-17T11:38:29.280Z,41.1
2023-03-17T11:44:22.546Z,38.8
2023-03-17T11:50:15.225Z,45.9
2023-03-17T11:56:08.351Z,44.7
2023-03-17T12:02:01.014Z,46.9
2023-03-17T12:07:54.731Z,47.4
2023-03-17T12:13:46.663Z,47.8
2023-03-17T12:19:41.979Z,48.3
2023-03-17T12:25:34.888Z,48.9
2023-03-17T12:31:12.382Z,48.5
2023-03-17T12:37:09.322Z,41.5
2023-03-17T12:43:02.635Z,39.3
2023-03-17T12:48:56.791Z,37.4
2023-03-17T12:54:49.676Z,38.5
2023-03-17T13:00:42.595Z,39.5
2023-03-17T13:06:39.900Z,39.2
2023-03-17T13:12:33.270Z,39
2023-03-17T13:18:11.424Z,38.9
2023-03-17T13:24:05.875Z,38.6
2023-03-17T13:30:03.905Z,38.1
2023-03-17T13:35:57.608Z,37.6
2023-03-17T13:42:17.548Z,36.9
2023-03-17T13:48:14.778Z,33.3
2023-03-17T13:54:13.209Z,31.8
2023-03-17T14:00:07.005Z,30.5
2023-03-17T14:06:01.237Z,29.5
2023-03-17T14:11:54.148Z,28.7
2023-03-17T14:17:56.381Z,27.9
2023-03-17T14:23:38.623Z,27.3
2023-03-17T14:29:33.693Z,26.7
2023-03-17T14:35:27.298Z,26.2
2023-03-17T14:41:05.282Z,25.8
2023-03-17T14:46:58.240Z,25.4
2023-03-17T14:52:50.386Z,25.1
2023-03-17T14:58:44.469Z,24.8
2023-03-17T15:04:39.150Z,24.4
2023-03-17T15:10:34.372Z,24.2
2023-03-17T15:16:27.520Z,23.9
2023-03-17T15:22:20.871Z,23.8
2023-03-17T15:28:14.296Z,23.6
2023-03-17T15:34:14.867Z,23.4
2023-03-17T15:40:14.346Z,23.2
2023-03-17T15:46:07.796Z,23.1
2023-03-17T15:52:00.367Z,22.9
2023-03-17T15:57:55.482Z,22.8
2023-03-17T16:03:47.904Z,22.6
2023-03-17T16:09:40.640Z,22.5
2023-03-17T16:15:49.653Z,22.3
2023-03-17T16:21:42.296Z,22.3
2023-03-17T16:27:46.515Z,22.2
2023-03-17T16:33:23.260Z,22.1
2023-03-17T16:39:15.556Z,22.1
2023-03-17T16:45:20.247Z,22.1
2023-03-17T16:51:13.282Z,22.1
2023-03-17T16:56:50.553Z,22
2023-03-17T17:02:45.205Z,22
2023-03-17T17:08:06.790Z,22
2023-03-17T17:13:43.628Z,21.9
2023-03-17T17:19:20.737Z,21.9
2023-03-17T17:24:58.751Z,21.9
2023-03-17T17:30:22.035Z,21.8
2023-03-17T17:35:59.736Z,21.7
2023-03-17T17:41:52.871Z,21.6
2023-03-17T17:47:48.437Z,21.4
2023-03-17T17:53:26.020Z,21.4
2023-03-17T17:59:02.860Z,21.3
2023-03-17T18:15:54.655Z,21.1
2023-03-17T18:21:30.926Z,21
2023-03-17T18:27:24.855Z,20.9
2023-03-17T18:33:18.574Z,20.9
2023-03-17T18:38:40.362Z,20.9
2023-03-17T18:44:47.480Z,20.9
2023-03-17T18:50:09.384Z,20.9
2023-03-17T18:55:46.298Z,20.9
2023-03-17T19:01:41.000Z,20.8
2023-03-17T19:07:18.806Z,20.8
2023-03-17T19:12:55.709Z,20.8
2023-03-17T19:18:48.377Z,20.8
2023-03-17T19:24:24.381Z,20.7
2023-03-17T19:30:17.147Z,20.7
2023-03-17T19:35:55.602Z,20.6
2023-03-17T19:41:34.369Z,20.7
2023-03-17T19:47:06.531Z,20.6
2023-03-17T19:52:29.812Z,20.6
2023-03-17T19:57:50.513Z,20.6
2023-03-17T20:03:43.900Z,20.6
2023-03-17T20:09:37.584Z,20.6
2023-03-17T20:15:14.947Z,20.6
2023-03-17T20:20:38.926Z,20.6
2023-03-17T20:26:00.647Z,20.6
2023-03-17T20:31:38.901Z,20.6
2023-03-17T20:37:18.611Z,20.6
2023-03-17T20:43:11.644Z,20.6
2023-03-17T20:49:03.880Z,20.6
2023-03-17T20:54:59.547Z,20.6
2023-03-17T21:00:52.898Z,20.6
2023-03-17T21:06:45.968Z,20.6
2023-03-17T21:12:38.764Z,20.6
2023-03-17T21:18:17.167Z,20.6
2023-03-17T21:24:13.129Z,20.6
2023-03-17T21:29:50.231Z,20.6
2023-03-17T21:35:12.187Z,20.6
2023-03-17T21:41:07.991Z,20.6
2023-03-17T21:47:01.046Z,20.6
2023-03-17T21:52:54.341Z,20.6
2023-03-17T21:58:48.034Z,20.5
2023-03-17T22:04:17.727Z,20.4
2023-03-17T22:09:56.083Z,20.3
2023-03-17T22:15:18.403Z,20.2
2023-03-17T22:20:59.451Z,20.2
2023-03-17T22:26:37.243Z,20.1
2023-03-17T22:32:30.651Z,20.1
2023-03-17T22:38:24.803Z,20
2023-03-17T22:44:03.598Z,19.9
2023-03-17T22:49:58.667Z,19.9
2023-03-17T22:55:20.711Z,19.9
2023-03-17T23:01:13.659Z,19.9
2023-03-17T23:07:05.614Z,19.8
2023-03-17T23:12:53.391Z,19.8
2023-03-17T23:18:47.035Z,19.8
2023-03-17T23:24:38.840Z,19.8
2023-03-17T23:30:32.417Z,19.8
2023-03-17T23:36:10.851Z,19.7
2023-03-17T23:41:48.727Z,19.7
2023-03-17T23:47:41.970Z,19.7
2023-03-17T23:53:19.932Z,19.6
2023-03-17T23:58:56.096Z,19.6
